createdAt,value
2023-02-01T00:00:00.452Z,91.00
2023-02-01T00:01:00.405Z,90.85
2023-02-01T00:02:00.430Z,90.23
2023-02-01T00:03:00.385Z,91.10
2023-02-01T00:04:00.448Z,90.54
2023-02-01T00:05:00.355Z,91.20
2023-02-01T00:06:00.359Z,91.27
2023-02-01T00:07:00.380Z,91.72
2023-02-01T00:08:00.349Z,92.10
2023-02-01T00:09:00.328Z,91.47
2023-02-01T00:10:00.319Z,91.37
2023-02-01T00:11:00.319Z,91.27
2023-02-01T00:12:00.305Z,91.16
2023-02-01T00:13:00.317Z,91.33
2023-02-01T00:14:00.292Z,91.27
2023-02-01T00:15:01.284Z,91.37
2023-02-01T00:16:00.278Z,91.53
2023-02-01T00:17:00.249Z,91.12
2023-02-01T00:18:00.266Z,90.81
2023-02-01T00:19:00.237Z,91.12
2023-02-01T00:20:00.212Z,91.02
2023-02-01T00:21:00.208Z,91.02
2023-02-01T00:22:00.193Z,90.19
2023-02-01T00:23:00.202Z,90.60
2023-02-01T00:24:00.175Z,90.45
2023-02-01T00:25:00.172Z,90.08
2023-02-01T00:26:00.162Z,90.45
2023-02-01T00:27:00.157Z,90.25
2023-02-01T00:28:00.139Z,90.66
2023-02-01T00:29:00.127Z,90.14
2023-02-01T00:30:00.115Z,90.35
2023-02-01T00:31:00.283Z,89.73
2023-02-01T00:32:00.156Z,89.94
2023-02-01T00:33:00.097Z,89.42
2023-02-01T00:34:00.111Z,89.94
2023-02-01T00:35:00.097Z,90.14
2023-02-01T00:36:00.079Z,89.48
2023-02-01T00:37:00.057Z,89.58
2023-02-01T00:38:00.034Z,89.28
2023-02-01T00:39:00.046Z,89.62
2023-02-01T00:40:00.028Z,89.07
2023-02-01T00:41:00.004Z,89.07
2023-02-01T00:42:00.008Z,89.07
2023-02-01T00:43:00.003Z,88.65
2023-02-01T00:43:59.978Z,88.55
2023-02-01T00:44:59.980Z,88.28
2023-02-01T00:45:59.966Z,89.00
2023-02-01T00:46:59.952Z,89.56
2023-02-01T00:47:59.970Z,89.62
2023-02-01T00:48:59.946Z,89.11
2023-02-01T00:49:59.926Z,89.00
2023-02-01T00:50:59.915Z,88.39
2023-02-01T00:51:59.894Z,88.34
2023-02-01T00:52:59.908Z,88.48
2023-02-01T00:53:59.872Z,88.45
2023-02-01T00:54:59.883Z,88.79
2023-02-01T00:55:59.862Z,88.79
2023-02-01T00:56:59.903Z,88.90
2023-02-01T00:57:59.850Z,88.96
2023-02-01T00:58:59.832Z,88.65
2023-02-01T00:59:59.821Z,88.86
2023-02-01T01:00:59.879Z,88.34
2023-02-01T01:01:59.851Z,88.34
2023-02-01T01:02:59.804Z,88.55
2023-02-01T01:03:59.824Z,88.55
2023-02-01T01:04:59.790Z,88.65
2023-02-01T01:05:59.760Z,88.86
2023-02-01T01:06:59.751Z,88.13
2023-02-01T01:07:59.737Z,88.76
2023-02-01T01:08:59.767Z,88.13
2023-02-01T01:09:59.746Z,88.24
2023-02-01T01:11:07.272Z,88.40
2023-02-01T01:11:59.722Z,88.45
2023-02-01T01:12:59.699Z,88.20
2023-02-01T01:13:59.679Z,88.34
2023-02-01T01:14:59.666Z,88.24
2023-02-01T01:15:59.707Z,88.13
2023-02-01T01:16:59.700Z,88.55
2023-02-01T01:17:59.651Z,89.31
2023-02-01T01:18:59.681Z,90.56
2023-02-01T01:20:00.040Z,90.87
2023-02-01T01:21:00.610Z,90.66
2023-02-01T01:21:59.615Z,91.43
2023-02-01T01:22:59.667Z,91.39
2023-02-01T01:23:59.590Z,91.70
2023-02-01T01:24:59.595Z,92.36
2023-02-01T01:25:59.575Z,92.32
2023-02-01T01:26:59.556Z,92.53
2023-02-01T01:27:59.573Z,92.43
2023-02-01T01:28:59.559Z,92.53
2023-02-01T01:29:59.558Z,92.63
2023-02-01T01:30:59.650Z,92.22
2023-02-01T01:31:59.513Z,92.18
2023-02-01T01:32:59.508Z,91.97
2023-02-01T01:33:59.502Z,91.86
2023-02-01T01:34:59.493Z,92.07
2023-02-01T01:35:59.476Z,91.55
2023-02-01T01:36:59.466Z,91.41
2023-02-01T01:37:59.458Z,91.45
2023-02-01T01:38:59.445Z,91.24
2023-02-01T01:39:59.453Z,91.14
2023-02-01T01:40:59.447Z,91.35
2023-02-01T01:41:59.428Z,91.24
2023-02-01T01:42:59.405Z,91.45
2023-02-01T01:43:59.419Z,90.68
2023-02-01T01:44:59.397Z,90.52
2023-02-01T01:45:59.407Z,90.58
2023-02-01T01:46:59.433Z,91.66
2023-02-01T01:48:00.367Z,91.60
2023-02-01T01:48:59.355Z,91.91
2023-02-01T01:49:59.337Z,92.11
2023-02-01T01:50:59.359Z,92.32
2023-02-01T01:51:59.330Z,92.11
2023-02-01T01:52:59.331Z,92.57
2023-02-01T01:53:59.304Z,92.53
2023-02-01T01:54:59.304Z,92.74
2023-02-01T01:55:59.326Z,92.53
2023-02-01T01:56:59.343Z,92.84
2023-02-01T01:57:59.277Z,92.84
2023-02-01T01:58:59.262Z,92.94
2023-02-01T01:59:59.273Z,92.53
2023-02-01T02:00:59.259Z,92.43
2023-02-01T02:01:59.345Z,92.59
2023-02-01T02:02:59.245Z,92.38
2023-02-01T02:03:59.209Z,92.59
2023-02-01T02:04:59.197Z,92.53
2023-02-01T02:05:59.195Z,91.86
2023-02-01T02:06:59.190Z,91.86
2023-02-01T02:07:59.197Z,91.66
2023-02-01T02:08:59.169Z,91.76
2023-02-01T02:10:01.248Z,91.51
2023-02-01T02:11:00.143Z,91.30
2023-02-01T02:11:59.140Z,91.20
2023-02-01T02:12:59.137Z,91.45
2023-02-01T02:13:59.140Z,91.30
2023-02-01T02:14:59.120Z,91.41
2023-02-01T02:15:59.115Z,90.68
2023-02-01T02:16:59.102Z,90.78
2023-02-01T02:17:59.093Z,90.99
2023-02-01T02:18:59.091Z,90.26
2023-02-01T02:19:59.072Z,90.78
2023-02-01T02:20:59.059Z,90.37
2023-02-01T02:21:59.044Z,89.96
2023-02-01T02:22:59.032Z,90.16
2023-02-01T02:23:59.022Z,90.44
2023-02-01T02:24:59.025Z,89.44
2023-02-01T02:25:58.988Z,90.26
2023-02-01T02:27:00.005Z,90.06
2023-02-01T02:27:58.983Z,90.68
2023-02-01T02:28:58.977Z,90.47
2023-02-01T02:29:58.963Z,90.58
2023-02-01T02:30:59.007Z,90.47
2023-02-01T02:31:59.029Z,90.58
2023-02-01T02:32:58.932Z,90.47
2023-02-01T02:33:58.924Z,90.68
2023-02-01T02:34:58.931Z,90.58
2023-02-01T02:35:58.922Z,90.06
2023-02-01T02:36:58.913Z,89.92
2023-02-01T02:37:58.895Z,89.92
2023-02-01T02:38:58.871Z,90.02
2023-02-01T02:39:58.864Z,90.33
2023-02-01T02:40:58.859Z,89.92
2023-02-01T02:41:58.850Z,89.81
2023-02-01T02:42:58.858Z,89.92
2023-02-01T02:43:58.840Z,89.29
2023-02-01T02:44:58.806Z,89.40
2023-02-01T02:45:58.822Z,89.54
2023-02-01T02:46:58.797Z,89.29
2023-02-01T02:47:58.793Z,89.86
2023-02-01T02:48:58.797Z,90.12
2023-02-01T02:49:58.813Z,89.54
2023-02-01T02:50:58.766Z,89.65
2023-02-01T02:51:58.748Z,90.47
2023-02-01T02:52:58.738Z,90.47
2023-02-01T02:53:58.746Z,90.58
2023-02-01T02:54:58.723Z,90.78
2023-02-01T02:55:58.715Z,90.06
2023-02-01T02:56:58.715Z,90.26
2023-02-01T02:57:59.765Z,90.26
2023-02-01T02:58:58.702Z,90.26
2023-02-01T02:59:58.676Z,90.37
2023-02-01T03:00:58.704Z,89.96
2023-02-01T03:01:58.666Z,90.78
2023-02-01T03:02:58.716Z,90.99
2023-02-01T03:03:58.637Z,90.99
2023-02-01T03:04:58.609Z,90.26
2023-02-01T03:05:58.636Z,90.68
2023-02-01T03:06:58.639Z,90.83
2023-02-01T03:07:58.614Z,90.72
2023-02-01T03:08:58.587Z,90.83
2023-02-01T03:09:58.581Z,91.24
2023-02-01T03:10:58.598Z,91.24
2023-02-01T03:11:58.557Z,91.14
2023-02-01T03:12:58.554Z,91.30
2023-02-01T03:13:58.559Z,90.62
2023-02-01T03:14:58.546Z,90.93
2023-02-01T03:15:58.543Z,90.47
2023-02-01T03:16:58.513Z,89.96
2023-02-01T03:17:58.510Z,90.37
2023-02-01T03:18:58.521Z,90.06
2023-02-01T03:19:58.494Z,90.47
2023-02-01T03:20:58.471Z,90.06
2023-02-01T03:22:44.771Z,90.06
2023-02-01T03:23:44.797Z,90.37
2023-02-01T03:24:44.778Z,90.47
2023-02-01T03:25:45.900Z,89.61
2023-02-01T03:26:45.978Z,89.44
2023-02-01T03:27:45.864Z,89.65
2023-02-01T03:28:45.858Z,89.44
2023-02-01T03:29:45.861Z,89.65
2023-02-01T03:30:45.900Z,89.19
2023-02-01T03:31:45.877Z,89.34
2023-02-01T03:32:45.828Z,88.98
2023-02-01T03:33:45.813Z,88.88
2023-02-01T03:34:45.817Z,89.81
2023-02-01T03:35:45.791Z,89.54
2023-02-01T03:36:45.782Z,89.19
2023-02-01T03:37:45.793Z,89.29
2023-02-01T03:38:45.773Z,89.40
2023-02-01T03:39:45.750Z,89.54
2023-02-01T03:40:45.736Z,89.61
2023-02-01T03:41:45.727Z,89.61
2023-02-01T03:42:45.726Z,89.71
2023-02-01T03:43:45.719Z,89.65
2023-02-01T03:44:45.699Z,89.29
2023-02-01T03:45:45.765Z,89.92
2023-02-01T03:46:45.693Z,89.19
2023-02-01T03:47:45.661Z,88.88
2023-02-01T03:48:45.653Z,88.98
2023-02-01T03:49:45.661Z,88.78
2023-02-01T03:50:45.668Z,88.78
2023-02-01T03:51:45.671Z,88.88
2023-02-01T03:52:45.623Z,89.19
2023-02-01T03:53:45.607Z,89.29
2023-02-01T03:54:45.627Z,89.65
2023-02-01T03:55:45.622Z,89.23
2023-02-01T03:56:45.581Z,89.54
2023-02-01T03:57:45.578Z,89.81
2023-02-01T03:58:45.565Z,89.71
2023-02-01T03:59:45.555Z,89.65
2023-02-01T04:00:45.563Z,89.54
2023-02-01T04:01:45.532Z,89.13
2023-02-01T04:02:45.597Z,89.34
2023-02-01T04:03:45.530Z,89.65
2023-02-01T04:04:45.517Z,89.81
2023-02-01T04:05:45.521Z,89.54
2023-02-01T04:06:45.483Z,89.61
2023-02-01T04:07:45.472Z,88.67
2023-02-01T04:08:45.472Z,89.03
2023-02-01T04:09:45.461Z,88.46
2023-02-01T04:10:45.495Z,88.92
2023-02-01T04:11:45.442Z,88.92
2023-02-01T04:12:45.433Z,88.92
2023-02-01T04:13:45.425Z,88.92
2023-02-01T04:14:45.411Z,88.82
2023-02-01T04:15:45.401Z,88.61
2023-02-01T04:16:45.478Z,88.26
2023-02-01T04:17:45.389Z,88.51
2023-02-01T04:18:45.372Z,88.36
2023-02-01T04:19:45.362Z,88.51
2023-02-01T04:20:45.356Z,88.51
2023-02-01T04:21:45.385Z,88.67
2023-02-01T04:22:45.353Z,88.20
2023-02-01T04:23:45.327Z,88.40
2023-02-01T04:24:45.312Z,88.26
2023-02-01T04:25:45.309Z,88.09
2023-02-01T04:26:45.413Z,88.36
2023-02-01T04:27:45.311Z,87.99
2023-02-01T04:28:45.275Z,88.09
2023-02-01T04:29:45.269Z,87.99
2023-02-01T04:30:45.301Z,87.88
2023-02-01T04:31:45.330Z,88.09
2023-02-01T04:32:45.239Z,87.99
2023-02-01T04:33:45.239Z,87.78
2023-02-01T04:34:45.204Z,88.09
2023-02-01T04:35:45.206Z,87.68
2023-02-01T04:36:47.212Z,87.88
2023-02-01T04:37:46.178Z,87.78
2023-02-01T04:38:45.175Z,87.57
2023-02-01T04:39:45.182Z,87.57
2023-02-01T04:40:45.154Z,87.78
2023-02-01T04:41:45.167Z,87.57
2023-02-01T04:42:45.132Z,87.57
2023-02-01T04:43:45.125Z,87.88
2023-02-01T04:44:45.112Z,87.78
2023-02-01T04:45:45.148Z,87.88
2023-02-01T04:46:45.106Z,87.88
2023-02-01T04:47:45.092Z,88.03
2023-02-01T04:48:45.077Z,88.03
2023-02-01T04:49:45.071Z,88.03
2023-02-01T04:50:45.043Z,87.82
2023-02-01T04:51:45.043Z,87.88
2023-02-01T04:52:45.063Z,88.09
2023-02-01T04:53:45.023Z,87.88
2023-02-01T04:54:45.017Z,86.65
2023-02-01T04:55:44.993Z,86.85
2023-02-01T04:56:45.004Z,87.27
2023-02-01T04:57:44.997Z,87.51
2023-02-01T04:58:44.993Z,86.89
2023-02-01T04:59:44.965Z,87.10
2023-02-01T05:00:44.958Z,87.10
2023-02-01T05:01:45.689Z,86.89
2023-02-01T05:02:44.957Z,86.89
2023-02-01T05:03:44.929Z,86.79
2023-02-01T05:04:44.982Z,86.68
2023-02-01T05:05:44.904Z,87.06
2023-02-01T05:06:44.903Z,86.79
2023-02-01T05:07:44.910Z,86.89
2023-02-01T05:08:44.884Z,86.89
2023-02-01T05:09:44.860Z,86.47
2023-02-01T05:10:44.859Z,86.27
2023-02-01T05:11:44.850Z,86.33
2023-02-01T05:12:44.835Z,86.13
2023-02-01T05:13:44.839Z,85.86
2023-02-01T05:14:44.835Z,86.27
2023-02-01T05:15:44.872Z,86.27
2023-02-01T05:16:44.807Z,86.17
2023-02-01T05:17:44.791Z,84.92
2023-02-01T05:18:44.788Z,85.03
2023-02-01T05:19:44.783Z,85.96
2023-02-01T05:20:44.758Z,85.13
2023-02-01T05:21:44.785Z,84.92
2023-02-01T05:22:44.740Z,84.72
2023-02-01T05:23:44.731Z,84.96
2023-02-01T05:24:44.722Z,84.51
2023-02-01T05:25:44.700Z,84.13
2023-02-01T05:26:44.870Z,84.34
2023-02-01T05:27:44.699Z,84.86
2023-02-01T05:28:44.693Z,84.30
2023-02-01T05:29:44.686Z,84.09
2023-02-01T05:30:44.853Z,83.47
2023-02-01T05:31:44.771Z,82.95
2023-02-01T05:32:44.676Z,83.16
2023-02-01T05:33:44.645Z,82.95
2023-02-01T05:34:44.631Z,83.06
2023-02-01T05:35:44.618Z,83.10
2023-02-01T05:36:44.601Z,82.75
2023-02-01T05:37:44.618Z,82.44
2023-02-01T05:38:44.578Z,82.48
2023-02-01T05:39:44.585Z,82.48
2023-02-01T05:40:44.562Z,81.92
2023-02-01T05:41:44.558Z,82.48
2023-02-01T05:42:44.544Z,83.31
2023-02-01T05:43:44.574Z,83.10
2023-02-01T05:44:44.524Z,82.79
2023-02-01T05:45:44.519Z,82.89
2023-02-01T05:46:44.498Z,82.89
2023-02-01T05:47:44.491Z,82.68
2023-02-01T05:48:44.514Z,82.82
2023-02-01T05:49:44.487Z,82.79
2023-02-01T05:50:44.461Z,82.93
2023-02-01T05:51:44.450Z,83.03
2023-02-01T05:52:44.449Z,83.10
2023-02-01T05:53:44.436Z,83.20
2023-02-01T05:54:44.437Z,83.14
2023-02-01T05:55:44.431Z,83.14
2023-02-01T05:56:44.401Z,82.48
2023-02-01T05:57:44.415Z,82.48
2023-02-01T05:58:44.387Z,82.62
2023-02-01T05:59:44.388Z,82.62
2023-02-01T06:00:44.365Z,82.72
2023-02-01T06:01:44.352Z,82.62
2023-02-01T06:02:44.345Z,82.62
2023-02-01T06:03:44.353Z,82.41
2023-02-01T06:04:44.339Z,82.37
2023-02-01T06:05:44.339Z,82.10
2023-02-01T06:06:44.306Z,82.20
2023-02-01T06:07:44.304Z,82.41
2023-02-01T06:08:44.289Z,82.37
2023-02-01T06:09:44.294Z,82.31
2023-02-01T06:10:44.286Z,82.31
2023-02-01T06:11:44.269Z,82.10
2023-02-01T06:12:44.251Z,82.10
2023-02-01T06:13:44.252Z,82.10
2023-02-01T06:14:44.248Z,82.41
2023-02-01T06:15:44.287Z,82.10
2023-02-01T06:16:44.205Z,81.96
2023-02-01T06:17:44.206Z,81.68
2023-02-01T06:18:44.204Z,81.75
2023-02-01T06:19:44.177Z,81.58
2023-02-01T06:20:44.186Z,81.23
2023-02-01T06:21:44.168Z,81.75
2023-02-01T06:22:44.156Z,81.65
2023-02-01T06:23:44.142Z,81.34
2023-02-01T06:24:44.134Z,81.58
2023-02-01T06:25:44.142Z,81.65
2023-02-01T06:26:44.178Z,81.58
2023-02-01T06:27:44.099Z,81.16
2023-02-01T06:28:44.081Z,81.79
2023-02-01T06:29:44.081Z,81.27
2023-02-01T06:30:44.139Z,81.02
2023-02-01T06:31:44.125Z,80.92
2023-02-01T06:32:44.056Z,81.16
2023-02-01T06:33:44.051Z,80.85
2023-02-01T06:34:44.034Z,80.71
2023-02-01T06:35:44.024Z,80.71
2023-02-01T06:36:44.047Z,81.02
2023-02-01T06:37:43.990Z,80.82
2023-02-01T06:38:43.998Z,80.92
2023-02-01T06:39:43.972Z,80.82
2023-02-01T06:40:44.045Z,80.61
2023-02-01T06:41:43.983Z,80.57
2023-02-01T06:42:43.948Z,80.82
2023-02-01T06:43:43.935Z,80.71
2023-02-01T06:44:43.940Z,80.99
2023-02-01T06:45:43.927Z,80.78
2023-02-01T06:46:43.967Z,80.57
2023-02-01T06:47:43.932Z,81.20
2023-02-01T06:48:43.899Z,80.26
2023-02-01T06:49:43.887Z,80.26
2023-02-01T06:50:43.875Z,80.68
2023-02-01T06:51:43.859Z,80.99
2023-02-01T06:52:43.890Z,80.99
2023-02-01T06:53:43.852Z,80.78
2023-02-01T06:54:43.829Z,80.78
2023-02-01T06:55:43.823Z,80.47
2023-02-01T06:56:43.809Z,80.92
2023-02-01T06:57:43.799Z,80.78
2023-02-01T06:58:43.822Z,80.88
2023-02-01T06:59:43.789Z,80.57
2023-02-01T07:00:43.797Z,80.47
2023-02-01T07:01:43.810Z,80.26
2023-02-01T07:02:43.757Z,80.36
2023-02-01T07:03:43.762Z,80.36
2023-02-01T07:04:43.751Z,80.12
2023-02-01T07:05:43.721Z,80.57
2023-02-01T07:06:43.709Z,80.26
2023-02-01T07:07:43.705Z,80.26
2023-02-01T07:08:43.706Z,80.74
2023-02-01T07:09:43.714Z,80.36
2023-02-01T07:10:43.694Z,80.36
2023-02-01T07:12:15.584Z,80.68
2023-02-01T07:12:43.673Z,80.57
2023-02-01T07:13:43.673Z,80.85
2023-02-01T07:14:43.665Z,80.22
2023-02-01T07:15:43.671Z,81.16
2023-02-01T07:16:43.622Z,80.57
2023-02-01T07:17:43.614Z,80.74
2023-02-01T07:18:43.619Z,80.54
2023-02-01T07:19:43.604Z,80.74
2023-02-01T07:20:43.612Z,80.64
2023-02-01T07:21:43.588Z,80.64
2023-02-01T07:22:43.573Z,80.22
2023-02-01T07:23:43.578Z,80.33
2023-02-01T07:24:43.618Z,80.22
2023-02-01T07:25:43.544Z,79.30
2023-02-01T07:26:43.594Z,79.40
2023-02-01T07:27:43.531Z,80.02
2023-02-01T07:28:43.576Z,79.60
2023-02-01T07:29:43.615Z,80.22
2023-02-01T07:30:43.558Z,79.26
2023-02-01T07:31:43.511Z,79.57
2023-02-01T07:32:43.528Z,80.19
2023-02-01T07:33:43.484Z,80.29
2023-02-01T07:34:43.467Z,79.47
2023-02-01T07:35:43.477Z,79.26
2023-02-01T07:36:43.441Z,79.05
2023-02-01T07:37:43.425Z,79.36
2023-02-01T07:38:43.391Z,79.05
2023-02-01T07:39:43.443Z,79.57
2023-02-01T07:40:43.417Z,79.57
2023-02-01T07:41:43.398Z,79.53
2023-02-01T07:42:43.383Z,79.74
2023-02-01T07:43:43.403Z,78.60
2023-02-01T07:44:43.372Z,79.43
2023-02-01T07:45:43.381Z,79.57
2023-02-01T07:46:43.358Z,78.95
2023-02-01T07:47:43.336Z,79.43
2023-02-01T07:48:43.321Z,79.02
2023-02-01T07:49:43.319Z,79.12
2023-02-01T07:50:43.322Z,79.53
2023-02-01T07:51:43.319Z,79.53
2023-02-01T07:52:43.296Z,79.02
2023-02-01T07:53:43.284Z,78.91
2023-02-01T07:54:43.304Z,79.22
2023-02-01T07:55:43.266Z,79.02
2023-02-01T07:56:43.281Z,79.02
2023-02-01T07:57:43.226Z,79.19
2023-02-01T07:58:43.229Z,79.60
2023-02-01T07:59:43.219Z,78.70
2023-02-01T08:00:43.216Z,78.60
2023-02-01T08:01:43.205Z,79.12
2023-02-01T08:02:43.241Z,78.88
2023-02-01T08:03:43.202Z,78.98
2023-02-01T08:04:43.183Z,79.49
2023-02-01T08:05:43.185Z,79.08
2023-02-01T08:06:43.162Z,78.56
2023-02-01T08:07:43.168Z,78.88
2023-02-01T08:08:43.140Z,78.67
2023-02-01T08:09:43.121Z,78.77
2023-02-01T08:10:43.107Z,78.98
2023-02-01T08:11:43.090Z,78.56
2023-02-01T08:12:43.110Z,78.53
2023-02-01T08:13:43.095Z,78.56
2023-02-01T08:14:43.066Z,77.94
2023-02-01T08:15:43.068Z,77.81
2023-02-01T08:16:43.130Z,78.01
2023-02-01T08:17:43.047Z,77.25
2023-02-01T08:18:43.052Z,77.36
2023-02-01T08:19:43.028Z,78.28
2023-02-01T08:20:43.013Z,77.56
2023-02-01T08:21:43.018Z,77.77
2023-02-01T08:22:42.990Z,77.87
2023-02-01T08:23:43.021Z,77.46
2023-02-01T08:24:42.966Z,77.36
2023-02-01T08:25:42.973Z,77.87
2023-02-01T08:26:43.041Z,77.98
2023-02-01T08:27:42.980Z,77.15
2023-02-01T08:28:42.960Z,78.28
2023-02-01T08:29:42.929Z,78.39
2023-02-01T08:30:42.977Z,78.80
2023-02-01T08:31:43.075Z,78.59
2023-02-01T08:32:42.893Z,78.53
2023-02-01T08:33:42.899Z,78.11
2023-02-01T08:34:42.891Z,78.70
2023-02-01T08:35:44.223Z,78.84
2023-02-01T08:36:43.888Z,79.01
2023-02-01T08:37:42.863Z,79.11
2023-02-01T08:38:42.844Z,79.22
2023-02-01T08:39:42.835Z,78.18
2023-02-01T08:40:42.831Z,77.77
2023-02-01T08:41:42.850Z,79.01
2023-02-01T08:42:42.813Z,78.08
2023-02-01T08:43:42.796Z,78.28
2023-02-01T08:44:42.771Z,78.49
2023-02-01T08:45:42.770Z,78.70
2023-02-01T08:46:42.771Z,78.70
2023-02-01T08:47:42.769Z,77.67
2023-02-01T08:48:42.729Z,78.91
2023-02-01T08:49:42.754Z,78.91
2023-02-01T08:50:42.716Z,79.11
2023-02-01T08:51:42.761Z,78.66
2023-02-01T08:52:42.704Z,78.56
2023-02-01T08:53:42.688Z,77.53
2023-02-01T08:54:42.738Z,77.70
2023-02-01T08:55:42.661Z,77.91
2023-02-01T08:56:42.737Z,77.59
2023-02-01T08:57:42.686Z,77.59
2023-02-01T08:58:42.661Z,77.15
2023-02-01T08:59:42.628Z,76.25
2023-02-01T09:00:42.623Z,77.66
2023-02-01T09:01:42.649Z,77.35
2023-02-01T09:02:42.622Z,76.12
2023-02-01T09:03:42.703Z,77.04
2023-02-01T09:04:42.589Z,75.63
2023-02-01T09:05:49.334Z,75.70
2023-02-01T09:06:44.602Z,75.39
2023-02-01T09:07:42.549Z,75.91
2023-02-01T09:08:42.547Z,75.91
2023-02-01T09:09:42.522Z,74.95
2023-02-01T09:10:42.513Z,74.74
2023-02-01T09:11:42.534Z,74.53
2023-02-01T09:12:42.490Z,74.63
2023-02-01T09:13:42.557Z,74.22
2023-02-01T09:14:42.495Z,75.15
2023-02-01T09:15:42.519Z,74.63
2023-02-01T09:16:42.499Z,74.84
2023-02-01T09:17:42.470Z,74.63
2023-02-01T09:18:50.894Z,73.50
2023-02-01T09:19:43.430Z,74.95
2023-02-01T09:20:43.440Z,75.36
2023-02-01T09:21:42.423Z,75.36
2023-02-01T09:22:42.406Z,75.36
2023-02-01T09:23:42.415Z,75.05
2023-02-01T09:24:42.410Z,74.84
2023-02-01T09:25:43.393Z,74.53
2023-02-01T09:26:42.397Z,74.50
2023-02-01T09:27:42.360Z,74.50
2023-02-01T09:28:42.357Z,73.36
2023-02-01T09:29:42.483Z,74.08
2023-02-01T09:30:42.455Z,73.98
2023-02-01T09:31:49.879Z,73.30
2023-02-01T09:32:44.315Z,73.40
2023-02-01T09:33:42.325Z,73.50
2023-02-01T09:34:42.342Z,73.71
2023-02-01T09:35:42.312Z,74.53
2023-02-01T09:36:42.309Z,74.88
2023-02-01T09:37:42.276Z,75.15
2023-02-01T09:38:52.365Z,74.77
2023-02-01T09:39:44.266Z,74.77
2023-02-01T09:40:42.255Z,74.84
2023-02-01T09:41:42.231Z,74.53
2023-02-01T09:42:42.217Z,75.29
2023-02-01T09:43:43.260Z,73.64
2023-02-01T09:44:44.657Z,74.46
2023-02-01T09:45:42.171Z,74.88
2023-02-01T09:46:42.180Z,75.05
2023-02-01T09:47:42.166Z,74.98
2023-02-01T09:48:42.167Z,75.09
2023-02-01T09:49:42.160Z,74.33
2023-02-01T09:50:42.199Z,74.67
2023-02-01T09:51:42.158Z,75.39
2023-02-01T09:52:42.134Z,75.26
2023-02-01T09:53:42.103Z,74.95
2023-02-01T09:54:42.088Z,75.36
2023-02-01T09:55:42.111Z,74.63
2023-02-01T09:56:42.113Z,75.15
2023-02-01T09:57:42.057Z,75.15
2023-02-01T09:58:42.074Z,75.15
2023-02-01T09:59:42.072Z,75.05
2023-02-01T10:00:42.022Z,75.26
2023-02-01T10:01:42.086Z,75.22
2023-02-01T10:02:42.021Z,75.67
2023-02-01T10:03:42.002Z,75.26
2023-02-01T10:04:41.988Z,75.39
2023-02-01T10:05:41.975Z,76.39
2023-02-01T10:06:41.974Z,76.21
2023-02-01T10:07:41.998Z,76.21
2023-02-01T10:08:42.023Z,75.87
2023-02-01T10:09:41.923Z,76.21
2023-02-01T10:10:41.929Z,77.04
2023-02-01T10:11:41.966Z,77.28
2023-02-01T10:12:41.902Z,77.59
2023-02-01T10:13:41.914Z,77.59
2023-02-01T10:14:41.950Z,77.08
2023-02-01T10:15:41.936Z,78.11
2023-02-01T10:16:41.979Z,77.39
2023-02-01T10:17:41.861Z,77.91
2023-02-01T10:18:41.882Z,77.49
2023-02-01T10:19:41.859Z,77.39
2023-02-01T10:20:41.831Z,77.91
2023-02-01T10:21:41.806Z,77.70
2023-02-01T10:23:05.028Z,77.49
2023-02-01T10:23:43.849Z,77.70
2023-02-01T10:24:41.815Z,77.49
2023-02-01T10:25:41.831Z,78.01
2023-02-01T10:26:41.907Z,77.49
2023-02-01T10:27:41.791Z,77.49
2023-02-01T10:28:41.754Z,77.97
2023-02-01T10:29:41.784Z,77.66
2023-02-01T10:30:41.876Z,77.66
2023-02-01T10:31:41.804Z,77.28
2023-02-01T10:32:41.743Z,77.35
2023-02-01T10:33:41.703Z,77.35
2023-02-01T10:34:41.703Z,77.70
2023-02-01T10:35:41.677Z,77.39
2023-02-01T10:36:41.733Z,77.70
2023-02-01T10:37:41.704Z,77.49
2023-02-01T10:38:41.647Z,78.01
2023-02-01T10:39:41.714Z,78.42
2023-02-01T10:40:42.660Z,78.83
2023-02-01T10:41:41.639Z,77.91
2023-02-01T10:42:41.607Z,77.70
2023-02-01T10:43:41.682Z,78.87
2023-02-01T10:44:41.644Z,78.83
2023-02-01T10:45:41.598Z,79.08
2023-02-01T10:46:41.591Z,78.87
2023-02-01T10:47:41.566Z,78.56
2023-02-01T10:48:41.549Z,78.87
2023-02-01T10:49:41.588Z,78.66
2023-02-01T10:50:41.595Z,77.49
2023-02-01T10:51:41.575Z,77.53
2023-02-01T10:52:41.517Z,78.14
2023-02-01T10:53:41.530Z,77.84
2023-02-01T10:54:41.523Z,78.87
2023-02-01T10:55:41.551Z,78.14
2023-02-01T10:56:41.484Z,79.28
2023-02-01T10:57:41.482Z,78.80
2023-02-01T10:58:41.465Z,77.56
2023-02-01T10:59:41.471Z,78.49
2023-02-01T11:00:41.435Z,78.56
2023-02-01T11:01:41.464Z,79.08
2023-02-01T11:02:41.444Z,78.05
2023-02-01T11:03:41.427Z,77.94
2023-02-01T11:04:41.416Z,77.73
2023-02-01T11:05:41.374Z,77.63
2023-02-01T11:06:41.376Z,78.05
2023-02-01T11:07:41.342Z,77.94
2023-02-01T11:08:41.348Z,77.94
2023-02-01T11:09:41.371Z,77.67
2023-02-01T11:10:41.357Z,77.22
2023-02-01T11:11:41.319Z,77.32
2023-02-01T11:12:41.319Z,77.11
2023-02-01T11:13:41.304Z,77.67
2023-02-01T11:14:41.320Z,77.73
2023-02-01T11:15:41.310Z,77.63
2023-02-01T11:16:41.259Z,78.35
2023-02-01T11:17:41.271Z,77.73
2023-02-01T11:18:41.242Z,77.22
2023-02-01T11:19:41.248Z,77.84
2023-02-01T11:20:42.247Z,77.53
2023-02-01T11:21:41.216Z,77.80
2023-02-01T11:22:41.235Z,77.56
2023-02-01T11:23:41.228Z,77.56
2023-02-01T11:24:41.212Z,77.73
2023-02-01T11:25:41.229Z,77.73
2023-02-01T11:26:41.243Z,76.81
2023-02-01T11:27:53.110Z,77.32
2023-02-01T11:28:43.148Z,77.11
2023-02-01T11:29:41.166Z,77.18
2023-02-01T11:30:41.223Z,76.77
2023-02-01T11:31:41.203Z,75.98
2023-02-01T11:32:41.104Z,76.25
2023-02-01T11:33:41.128Z,76.18
2023-02-01T11:34:41.083Z,76.90
2023-02-01T11:35:41.072Z,77.32
2023-02-01T11:36:41.096Z,77.53
2023-02-01T11:37:41.082Z,75.87
2023-02-01T11:38:41.050Z,76.77
2023-02-01T11:39:41.067Z,76.56
2023-02-01T11:40:41.032Z,75.95
2023-02-01T11:41:41.008Z,76.04
2023-02-01T11:42:41.029Z,75.53
2023-02-01T11:43:40.997Z,76.15
2023-02-01T11:44:40.988Z,76.25
2023-02-01T11:45:40.977Z,75.39
2023-02-01T11:46:41.001Z,75.49
2023-02-01T11:47:40.959Z,75.09
2023-02-01T11:48:40.937Z,75.39
2023-02-01T11:49:40.943Z,74.98
2023-02-01T11:50:40.938Z,75.01
2023-02-01T11:51:40.941Z,74.98
2023-02-01T11:52:40.941Z,75.18
2023-02-01T11:53:40.897Z,74.88
2023-02-01T11:54:40.886Z,74.88
2023-02-01T11:55:40.906Z,73.54
2023-02-01T11:56:40.866Z,74.36
2023-02-01T11:57:40.878Z,74.57
2023-02-01T11:58:40.902Z,74.77
2023-02-01T11:59:43.081Z,75.01
2023-02-01T12:00:41.831Z,74.88
2023-02-01T12:01:41.885Z,74.46
2023-02-01T12:02:41.735Z,74.46
2023-02-01T12:03:40.802Z,74.36
2023-02-01T12:04:40.812Z,73.64
2023-02-01T12:05:40.774Z,74.46
2023-02-01T12:06:40.797Z,74.15
2023-02-01T12:07:40.791Z,74.50
2023-02-01T12:08:40.759Z,74.98
2023-02-01T12:09:40.734Z,74.36
2023-02-01T12:10:40.761Z,73.47
2023-02-01T12:11:40.718Z,74.81
2023-02-01T12:12:40.737Z,73.43
2023-02-01T12:13:40.769Z,73.64
2023-02-01T12:14:40.687Z,73.64
2023-02-01T12:15:40.699Z,73.33
2023-02-01T12:16:40.714Z,73.43
2023-02-01T12:17:40.686Z,74.05
2023-02-01T12:18:40.683Z,72.92
2023-02-01T12:19:40.642Z,73.85
2023-02-01T12:20:41.675Z,73.57
2023-02-01T12:21:40.622Z,74.40
2023-02-01T12:22:40.623Z,74.15
2023-02-01T12:23:40.615Z,74.05
2023-02-01T12:24:40.599Z,73.50
2023-02-01T12:25:40.654Z,73.43
2023-02-01T12:26:40.629Z,73.33
2023-02-01T12:27:40.564Z,73.64
2023-02-01T12:28:40.571Z,73.12
2023-02-01T12:29:40.563Z,73.12
2023-02-01T12:30:40.586Z,73.22
2023-02-01T12:31:40.530Z,73.40
2023-02-01T12:32:40.549Z,73.43
2023-02-01T12:33:40.502Z,72.71
2023-02-01T12:34:40.529Z,73.54
2023-02-01T12:35:40.487Z,72.92
2023-02-01T12:36:40.526Z,72.71
2023-02-01T12:37:40.470Z,72.92
2023-02-01T12:38:40.461Z,72.99
2023-02-01T12:39:40.443Z,72.47
2023-02-01T12:40:40.434Z,72.50
2023-02-01T12:41:40.427Z,72.47
2023-02-01T12:42:40.438Z,73.30
2023-02-01T12:43:40.401Z,72.67
2023-02-01T12:44:40.383Z,72.50
2023-02-01T12:45:40.418Z,72.67
2023-02-01T12:46:40.357Z,72.61
2023-02-01T12:47:40.438Z,72.54
2023-02-01T12:48:41.711Z,73.26
2023-02-01T12:49:40.334Z,73.05
2023-02-01T12:50:40.314Z,73.57
2023-02-01T12:51:40.319Z,73.33
2023-02-01T12:52:40.324Z,73.05